Time;durP1;ratioP1;P1;durP2;ratioP2;P2;SDS_P1;SDS_P2;PMS_P1;PMS_P2;Temp;Humidity;BMP_temperature;BMP_pressure;BME280_temperature;BME280_humidity;BME280_pressure;Samples;Min_cycle;Max_cycle;Signal;HPM_P1;HPM_P2
2023/08/18 00:00:11;;;;;;;10.68;2.65;;;;;;;17.87;87.01;100679.44;5009992;28;20053;-45
2023/08/18 00:02:39;;;;;;;5.13;2.30;;;;;;;17.87;86.96;100687.84;5010931;28;20058;-47
2023/08/18 00:05:07;;;;;;;9.85;3.63;;;;;;;17.89;86.72;100690.25;5011950;28;20045;-46
2023/08/18 00:07:35;;;;;;;5.32;2.85;;;;;;;17.87;86.88;100684.25;5014461;28;20096;-46
2023/08/18 00:10:03;;;;;;;8.10;2.33;;;;;;;17.87;86.78;100684.25;5014037;28;20034;-45
2023/08/18 00:12:30;;;;;;;7.25;2.38;;;;;;;17.88;86.69;100688.66;5014078;28;20042;-47
2023/08/18 00:14:57;;;;;;;6.82;2.78;;;;;;;17.87;86.89;100692.66;5014095;28;20046;-46
2023/08/18 00:17:25;;;;;;;5.60;3.15;;;;;;;17.86;87.03;100679.84;5011688;28;20046;-46
2023/08/18 00:19:53;;;;;;;11.50;2.90;;;;;;;17.85;87.00;100684.63;5013720;28;20054;-48
2023/08/18 00:22:20;;;;;;;7.72;2.58;;;;;;;17.85;87.17;100681.84;5012184;28;20053;-45
2023/08/18 00:24:46;;;;;;;11.77;3.30;;;;;;;17.86;87.05;100691.03;5001191;28;20037;-46
2023/08/18 00:27:13;;;;;;;8.00;2.55;;;;;;;17.84;87.04;100685.84;5013183;28;20049;-46
2023/08/18 00:29:40;;;;;;;14.35;3.03;;;;;;;17.81;87.08;100683.03;5011740;28;20064;-45
2023/08/18 00:32:07;;;;;;;14.35;4.18;;;;;;;17.78;87.38;100675.41;5012434;28;20118;-45
2023/08/18 00:34:34;;;;;;;14.68;3.50;;;;;;;17.78;87.49;100684.63;5002871;28;20503;-46
2023/08/18 00:37:02;;;;;;;8.75;2.85;;;;;;;17.77;87.67;100674.59;5012414;28;20177;-45
2023/08/18 00:39:29;;;;;;;13.25;2.40;;;;;;;17.78;87.59;100678.22;4996705;28;20483;-46
2023/08/18 00:41:56;;;;;;;6.53;2.40;;;;;;;17.77;87.41;100676.59;5015258;28;20041;-46
2023/08/18 00:44:23;;;;;;;8.30;2.60;;;;;;;17.77;87.60;100665.41;5014139;28;20049;-48
2023/08/18 00:46:50;;;;;;;12.93;2.50;;;;;;;17.79;87.65;100668.63;5014501;28;20050;-47
2023/08/18 00:49:19;;;;;;;9.57;2.58;;;;;;;17.77;87.64;100671.00;5014098;28;20038;-45
2023/08/18 00:51:46;;;;;;;10.20;2.50;;;;;;;17.77;87.65;100662.59;5014167;28;20050;-45
2023/08/18 00:54:15;;;;;;;10.02;3.05;;;;;;;17.76;88.00;100669.41;5013817;28;20499;-47
2023/08/18 00:56:43;;;;;;;12.07;2.88;;;;;;;17.74;88.08;100663.41;5013826;28;20053;-47
2023/08/18 00:59:10;;;;;;;13.13;3.55;;;;;;;17.74;88.10;100666.22;5013595;28;20145;-45
2023/08/18 01:01:37;;;;;;;10.88;2.95;;;;;;;17.73;88.08;100659.81;5013564;28;20057;-46
2023/08/18 01:04:04;;;;;;;14.15;2.55;;;;;;;17.77;88.08;100659.78;5013864;28;20050;-47
2023/08/18 01:06:32;;;;;;;18.70;4.25;;;;;;;17.76;88.05;100652.63;5013693;28;20045;-45
2023/08/18 01:08:59;;;;;;;7.28;2.53;;;;;;;17.77;88.28;100657.81;5013279;28;20050;-50
2023/08/18 01:11:28;;;;;;;9.63;3.13;;;;;;;17.78;88.25;100647.41;5012200;28;20056;-45
2023/08/18 01:14:09;;;;;;;6.70;2.78;;;;;;;17.75;88.49;100653.78;5011920;28;20052;-45
2023/08/18 01:16:39;;;;;;;7.27;2.93;;;;;;;17.73;88.67;100659.00;5009735;28;20050;-45
2023/08/18 01:19:14;;;;;;;8.77;3.08;;;;;;;17.71;88.73;100651.00;5008695;28;20299;-45
2023/08/18 01:21:43;;;;;;;11.40;3.90;;;;;;;17.68;88.91;100640.59;4996098;28;20046;-48
2023/08/18 01:24:10;;;;;;;21.52;4.55;;;;;;;17.67;88.84;100643.78;5009625;28;20108;-45
2023/08/18 01:26:36;;;;;;;11.88;3.28;;;;;;;17.61;89.00;100641.38;5009197;28;20046;-45
2023/08/18 01:29:04;;;;;;;18.00;3.60;;;;;;;17.58;89.02;100630.13;5011790;28;20058;-46
2023/08/18 01:31:34;;;;;;;11.90;3.90;;;;;;;17.55;89.17;100625.34;4995223;28;20046;-45
2023/08/18 01:34:09;;;;;;;11.15;3.38;;;;;;;17.51;89.28;100625.31;5012619;28;20138;-47
2023/08/18 01:36:39;;;;;;;10.98;2.88;;;;;;;17.47;89.45;100624.47;5012816;28;20046;-45
2023/08/18 01:39:09;;;;;;;12.70;4.07;;;;;;;17.42;89.40;100616.47;5009229;28;20049;-46
2023/08/18 01:41:36;;;;;;;10.27;2.80;;;;;;;17.42;89.41;100619.25;5013051;28;20037;-45
2023/08/18 01:44:06;;;;;;;8.40;2.70;;;;;;;17.41;89.45;100609.28;5012309;28;20187;-46
2023/08/18 01:46:33;;;;;;;9.95;3.65;;;;;;;17.39;89.48;100622.06;5013119;28;20049;-45
2023/08/18 01:49:00;;;;;;;8.70;4.00;;;;;;;17.37;89.38;100608.47;5013753;28;20487;-46
2023/08/18 01:51:27;;;;;;;14.52;2.92;;;;;;;17.35;89.55;100615.66;5013109;28;20121;-46
2023/08/18 01:53:54;;;;;;;5.40;2.90;;;;;;;17.32;89.69;100625.63;5012615;28;20575;-47
2023/08/18 01:56:21;;;;;;;14.02;4.00;;;;;;;17.30;89.63;100602.84;5011891;28;20034;-47
2023/08/18 01:58:47;;;;;;;7.43;2.63;;;;;;;17.31;89.62;100615.66;5012504;28;20034;-50
2023/08/18 02:01:14;;;;;;;8.45;3.15;;;;;;;17.32;89.68;100606.03;5005695;28;20132;-48
2023/08/18 02:03:41;;;;;;;8.93;2.58;;;;;;;17.33;89.66;100618.03;5007575;28;20058;-53
2023/08/18 02:06:08;;;;;;;7.43;2.55;;;;;;;17.33;89.49;100624.44;5011173;28;20085;-49
2023/08/18 02:08:35;;;;;;;6.85;3.38;;;;;;;17.33;89.57;100610.47;5012058;28;20606;-46
2023/08/18 02:11:06;;;;;;;10.18;2.28;;;;;;;17.33;89.50;100623.63;5011149;28;20056;-47
2023/08/18 02:13:33;;;;;;;6.97;2.58;;;;;;;17.33;89.48;100630.03;5010113;28;20052;-45
2023/08/18 02:16:00;;;;;;;9.40;3.05;;;;;;;17.34;89.21;100631.63;5010867;28;20048;-45
2023/08/18 02:18:27;;;;;;;10.43;2.95;;;;;;;17.35;89.21;100622.06;5012143;28;20060;-45
2023/08/18 02:20:59;;;;;;;7.97;2.95;;;;;;;17.37;89.14;100628.03;5007578;28;20045;-45
2023/08/18 02:23:26;;;;;;;;;;;;;;;17.34;89.22;100626.03;5003429;28;20073;-45
2023/08/18 02:26:04;;;;;;;12.88;2.45;;;;;;;17.34;88.85;100626.03;5009624;28;19932;-48
2023/08/18 02:28:32;;;;;;;8.82;2.40;;;;;;;17.34;88.89;100622.47;5010014;28;20507;-45
2023/08/18 02:31:00;;;;;;;7.13;2.42;;;;;;;17.32;89.17;100617.25;5008122;28;20137;-50
2023/08/18 02:33:28;;;;;;;10.52;2.58;;;;;;;17.32;89.06;100622.03;5010802;28;20046;-47
2023/08/18 02:35:56;;;;;;;9.48;2.70;;;;;;;17.32;89.23;100617.25;5009045;28;20045;-44
2023/08/18 02:38:22;;;;;;;10.35;2.70;;;;;;;17.32;89.16;100616.44;5011085;28;20447;-45
2023/08/18 02:40:49;;;;;;;9.82;2.40;;;;;;;17.30;89.33;100614.03;5011056;28;20060;-46
2023/08/18 02:43:16;;;;;;;8.88;2.55;;;;;;;17.29;89.12;100609.63;5009881;28;20132;-45
2023/08/18 02:45:43;;;;;;;7.35;3.03;;;;;;;17.27;89.17;100606.44;5009514;28;20346;-46
2023/08/18 02:48:13;;;;;;;7.47;2.60;;;;;;;17.27;89.38;100598.03;5010354;28;20053;-46
2023/08/18 02:50:40;;;;;;;10.32;3.42;;;;;;;17.28;89.16;100594.03;5009718;28;20514;-44
2023/08/18 02:53:07;;;;;;;9.68;2.95;;;;;;;17.27;89.26;100588.84;5011611;28;20461;-46
2023/08/18 02:55:34;;;;;;;8.05;3.10;;;;;;;17.25;89.14;100588.44;5011220;28;20056;-46
2023/08/18 02:58:02;;;;;;;10.30;2.60;;;;;;;17.24;89.26;100593.22;5009589;28;20046;-45
2023/08/18 03:03:03;;;;;;;8.18;2.70;;;;;;;17.20;89.15;100580.41;5043413;28;20057;-50
2023/08/18 03:05:30;;;;;;;7.32;1.92;;;;;;;17.22;89.20;100575.22;5046751;28;20041;-48
2023/08/18 03:07:58;;;;;;;9.23;2.08;;;;;;;17.20;89.14;100578.44;5051126;28;20608;-47
2023/08/18 03:10:25;;;;;;;7.13;2.25;;;;;;;17.22;89.03;100584.44;5051286;28;20397;-49
2023/08/18 03:12:52;;;;;;;6.22;2.30;;;;;;;17.20;89.19;100575.63;5051123;28;20139;-46
2023/08/18 03:15:19;;;;;;;7.05;2.55;;;;;;;17.20;88.75;100570.03;5051732;28;20449;-47
2023/08/18 03:17:46;;;;;;;11.65;2.22;;;;;;;17.20;88.84;100575.63;5051176;28;20045;-47
2023/08/18 03:20:13;;;;;;;4.45;2.05;;;;;;;17.20;88.81;100567.25;5051375;28;20452;-47
2023/08/18 03:22:40;;;;;;;10.07;3.55;;;;;;;17.19;88.60;100585.22;5050315;28;20056;-47
2023/08/18 03:25:08;;;;;;;5.13;2.90;;;;;;;17.18;88.76;100582.81;5051418;28;20053;-47
2023/08/18 03:27:35;;;;;;;7.50;2.08;;;;;;;17.18;88.48;100583.63;5048479;28;20067;-45
2023/08/18 03:30:01;;;;;;;6.28;2.20;;;;;;;17.20;88.39;100581.22;5051134;28;20040;-45
2023/08/18 03:32:28;;;;;;;7.80;1.95;;;;;;;17.21;88.27;100585.59;5054159;28;20076;-47
2023/08/18 03:34:55;;;;;;;5.32;1.80;;;;;;;17.21;88.19;100577.22;5051494;28;20051;-46
2023/08/18 03:37:22;;;;;;;9.75;2.47;;;;;;;17.20;88.00;100572.84;5048873;28;20045;-47
2023/08/18 03:39:52;;;;;;;16.67;3.30;;;;;;;17.21;88.03;100582.81;5049007;28;20049;-46
2023/08/18 03:42:19;;;;;;;8.98;2.22;;;;;;;17.22;88.04;100578.81;5048773;28;20060;-47
2023/08/18 03:44:46;;;;;;;7.72;2.00;;;;;;;17.22;87.81;100573.22;5049374;28;20052;-46
2023/08/18 03:47:12;;;;;;;8.60;2.15;;;;;;;17.21;87.84;100565.25;5049912;28;20065;-48
2023/08/18 03:49:39;;;;;;;10.75;2.78;;;;;;;17.22;87.77;100564.03;5048122;28;20049;-47
2023/08/18 03:52:06;;;;;;;10.23;2.10;;;;;;;17.21;87.66;100563.22;5049916;28;20049;-47
2023/08/18 03:54:33;;;;;;;7.38;2.60;;;;;;;17.21;87.57;100552.03;5049754;28;20090;-48
2023/08/18 03:57:00;;;;;;;7.43;2.00;;;;;;;17.17;87.70;100540.03;5049138;28;20033;-48
2023/08/18 03:59:27;;;;;;;10.63;2.47;;;;;;;17.16;87.86;100557.22;5030816;28;20392;-48
2023/08/18 04:01:54;;;;;;;7.55;2.22;;;;;;;17.12;88.01;100557.22;5048668;28;20550;-48
2023/08/18 04:04:21;;;;;;;5.30;2.00;;;;;;;17.09;88.22;100562.78;5048155;28;20089;-47
2023/08/18 04:06:47;;;;;;;5.90;1.85;;;;;;;17.06;88.44;100569.97;5045959;28;20049;-47
2023/08/18 04:09:17;;;;;;;8.07;2.20;;;;;;;17.03;88.34;100559.56;5048065;28;20053;-46
2023/08/18 04:11:44;;;;;;;6.13;2.03;;;;;;;17.01;88.43;100562.75;5050695;28;20047;-46
2023/08/18 04:14:11;;;;;;;8.68;2.55;;;;;;;16.97;88.79;100561.94;5048523;28;20052;-48
2023/08/18 04:16:38;;;;;;;11.07;3.00;;;;;;;16.94;88.64;100557.13;5046560;28;20049;-48
2023/08/18 04:19:05;;;;;;;3.15;2.42;;;;;;;16.91;89.03;100557.13;5048377;28;20045;-46
2023/08/18 04:21:32;;;;;;;8.63;2.72;;;;;;;16.89;89.09;100549.09;5048256;28;20045;-46
2023/08/18 04:24:00;;;;;;;8.90;2.63;;;;;;;16.87;89.23;100539.50;5051459;28;20055;-46
2023/08/18 04:26:28;;;;;;;13.88;2.80;;;;;;;16.85;89.42;100530.72;5047389;28;20037;-45
2023/08/18 04:28:55;;;;;;;8.63;3.85;;;;;;;16.83;89.61;100539.50;5043303;28;20055;-47
2023/08/18 04:31:22;;;;;;;9.00;2.75;;;;;;;16.84;89.64;100543.91;5046483;28;20475;-46
2023/08/18 04:33:49;;;;;;;10.88;2.80;;;;;;;16.82;89.77;100542.69;5049842;28;20216;-46
2023/08/18 04:36:16;;;;;;;13.52;4.03;;;;;;;16.84;89.92;100545.88;5047189;28;20388;-46
2023/08/18 04:38:43;;;;;;;13.98;4.18;;;;;;;16.84;90.09;100549.50;5048046;28;20048;-46
2023/08/18 04:41:09;;;;;;;23.35;4.70;;;;;;;16.84;90.20;100543.09;5048503;28;20041;-46
2023/08/18 04:43:37;;;;;;;10.40;3.20;;;;;;;16.82;90.38;100542.69;5033102;28;20398;-46
2023/08/18 04:46:04;;;;;;;10.70;3.35;;;;;;;16.79;90.48;100543.47;5050236;28;20037;-48
2023/08/18 04:48:31;;;;;;;7.18;2.92;;;;;;;16.76;90.60;100547.06;5050313;28;20053;-48
2023/08/18 04:50:58;;;;;;;13.30;3.70;;;;;;;16.74;90.63;100538.25;5038434;28;20037;-49
2023/08/18 04:53:25;;;;;;;18.10;3.88;;;;;;;16.74;90.92;100538.25;5046530;28;20402;-46
2023/08/18 04:55:52;;;;;;;20.25;4.57;;;;;;;16.74;90.76;100532.66;5054359;28;20064;-46
2023/08/18 04:58:19;;;;;;;12.63;4.40;;;;;;;16.74;91.20;100524.28;5052597;28;20107;-49
2023/08/18 05:00:46;;;;;;;16.80;3.42;;;;;;;16.76;91.16;100531.06;5051589;28;20409;-46
2023/08/18 05:03:13;;;;;;;21.15;3.83;;;;;;;16.74;91.40;100529.88;5053306;28;20053;-47
2023/08/18 05:05:56;;;;;;;16.02;4.18;;;;;;;16.71;91.55;100527.84;5053208;28;20037;-46
2023/08/18 05:08:23;;;;;;;15.65;4.28;;;;;;;16.67;91.85;100518.66;5053769;28;20052;-47
2023/08/18 05:10:50;;;;;;;16.48;3.67;;;;;;;16.63;92.08;100517.81;5052921;28;20046;-46
2023/08/18 05:13:18;;;;;;;17.85;4.10;;;;;;;16.62;92.30;100516.25;5052147;28;20049;-46
2023/08/18 05:15:45;;;;;;;17.38;5.55;;;;;;;16.58;92.49;100512.59;5052779;28;20057;-46
2023/08/18 05:18:12;;;;;;;24.17;5.82;;;;;;;16.57;92.80;100519.41;5050523;28;20041;-46
2023/08/18 05:20:39;;;;;;;20.10;4.22;;;;;;;16.56;92.92;100512.22;5034191;28;20421;-49
2023/08/18 05:23:06;;;;;;;17.27;4.43;;;;;;;16.52;93.01;100505.78;5052892;28;20045;-46
2023/08/18 05:25:33;;;;;;;18.27;4.50;;;;;;;16.48;93.27;100505.75;5052319;28;20068;-47
2023/08/18 05:28:00;;;;;;;24.00;4.85;;;;;;;16.46;93.53;100516.53;5052879;28;20037;-47
2023/08/18 05:30:26;;;;;;;12.30;4.20;;;;;;;16.43;93.53;100508.91;5051614;28;20131;-49
2023/08/18 05:32:53;;;;;;;21.98;4.18;;;;;;;16.42;93.60;100496.94;5031352;28;20610;-46
2023/08/18 05:35:20;;;;;;;20.52;4.28;;;;;;;16.41;93.79;100506.50;5052278;28;20057;-46
2023/08/18 05:37:49;;;;;;;14.00;3.63;;;;;;;16.41;93.73;100523.25;5051498;28;20136;-47
2023/08/18 05:40:16;;;;;;;21.25;4.60;;;;;;;16.38;94.01;100512.88;5050652;28;20048;-46
2023/08/18 05:42:43;;;;;;;15.93;4.47;;;;;;;16.36;93.91;100509.66;5050175;28;20490;-46
2023/08/18 05:45:10;;;;;;;20.27;4.88;;;;;;;16.34;94.12;100512.06;5044819;28;20434;-47
2023/08/18 05:47:37;;;;;;;13.73;3.47;;;;;;;16.33;94.16;100524.44;5054767;28;20037;-49
2023/08/18 05:50:05;;;;;;;17.60;5.10;;;;;;;16.31;94.29;100524.00;5047060;28;20080;-47
2023/08/18 05:52:34;;;;;;;25.10;4.78;;;;;;;16.30;94.43;100519.63;5049898;28;20386;-48
2023/08/18 05:55:01;;;;;;;16.10;3.85;;;;;;;16.28;94.62;100507.25;5051924;28;20048;-47
2023/08/18 05:57:28;;;;;;;20.88;6.60;;;;;;;16.25;94.98;100502.41;5051618;28;20524;-47
2023/08/18 05:59:55;;;;;;;15.63;4.10;;;;;;;16.25;95.05;100505.22;5049089;28;20037;-47
2023/08/18 06:02:21;;;;;;;10.98;4.35;;;;;;;16.25;95.21;100508.81;5050092;28;20045;-46
2023/08/18 06:04:48;;;;;;;12.75;3.97;;;;;;;16.24;95.38;100496.03;5050289;28;20049;-46
2023/08/18 06:07:15;;;;;;;19.23;5.43;;;;;;;16.22;95.38;100492.84;5049445;28;20098;-46
2023/08/18 06:09:43;;;;;;;13.40;3.88;;;;;;;16.22;95.58;100497.59;5050057;28;20049;-46
2023/08/18 06:12:10;;;;;;;14.45;4.93;;;;;;;16.19;95.92;100510.38;5050468;28;20395;-48
2023/08/18 06:14:38;;;;;;;12.70;4.63;;;;;;;16.16;96.11;100499.97;5049105;28;20477;-49
2023/08/18 06:17:05;;;;;;;15.27;4.35;;;;;;;16.13;96.25;100500.75;5050458;28;20049;-47
2023/08/18 06:19:32;;;;;;;14.95;4.45;;;;;;;16.14;96.58;100501.53;5047619;28;20437;-49
2023/08/18 06:21:59;;;;;;;21.75;5.20;;;;;;;16.13;96.84;100503.53;5051143;28;20060;-47
2023/08/18 06:24:26;;;;;;;21.15;5.30;;;;;;;16.11;96.88;100508.72;5051068;28;20052;-46
2023/08/18 06:26:52;;;;;;;14.85;4.45;;;;;;;16.08;97.13;100505.88;5031411;28;20434;-46
2023/08/18 06:29:20;;;;;;;18.33;5.63;;;;;;;16.05;97.32;100499.09;5048185;28;20055;-47
2023/08/18 06:31:46;;;;;;;17.70;5.65;;;;;;;16.01;97.63;100506.66;5048305;28;20095;-50
2023/08/18 06:34:13;;;;;;;17.75;5.65;;;;;;;15.99;98.00;100506.22;5046840;28;20084;-48
2023/08/18 06:36:40;;;;;;;13.70;4.72;;;;;;;15.96;98.01;100506.19;5051038;28;20064;-47
2023/08/18 06:39:08;;;;;;;16.73;5.43;;;;;;;15.93;98.16;100507.78;5049190;28;20391;-51
2023/08/18 06:41:37;;;;;;;21.38;6.45;;;;;;;15.90;98.36;100500.16;5046852;28;20040;-49
2023/08/18 06:44:04;;;;;;;18.00;5.85;;;;;;;15.86;98.65;100496.53;5049938;28;20052;-46
2023/08/18 06:46:31;;;;;;;23.20;6.22;;;;;;;15.82;99.00;100492.94;5051656;28;20128;-48
2023/08/18 06:49:00;;;;;;;31.25;7.30;;;;;;;15.80;99.25;100498.09;5051928;28;20094;-49
2023/08/18 06:51:28;;;;;;;14.15;5.25;;;;;;;15.82;99.30;100495.72;5050946;28;20048;-47
2023/08/18 06:53:55;;;;;;;23.25;7.32;;;;;;;15.79;99.66;100491.72;5051535;28;20045;-46
2023/08/18 06:56:22;;;;;;;19.35;5.57;;;;;;;15.74;99.97;100475.31;5051889;28;20480;-46
2023/08/18 06:58:49;;;;;;;20.75;5.93;;;;;;;15.74;100.00;100483.69;5051554;28;20049;-46
2023/08/18 07:01:16;;;;;;;20.63;5.40;;;;;;;15.73;100.00;100481.28;5028555;28;20049;-46
2023/08/18 07:03:43;;;;;;;18.35;5.40;;;;;;;15.71;100.00;100476.09;5044672;28;20037;-46
2023/08/18 07:06:11;;;;;;;18.55;5.75;;;;;;;15.74;100.00;100477.31;5038371;28;20041;-46
2023/08/18 07:08:37;;;;;;;14.85;6.32;;;;;;;15.73;100.00;100468.13;5051116;28;20052;-46
2023/08/18 07:11:04;;;;;;;17.02;6.82;;;;;;;15.72;100.00;100474.91;5051710;28;20061;-47
2023/08/18 07:13:31;;;;;;;17.30;6.13;;;;;;;15.74;100.00;100477.31;5050492;28;20053;-46
2023/08/18 07:15:58;;;;;;;22.58;8.45;;;;;;;15.77;100.00;100468.16;5049686;28;20049;-47
2023/08/18 07:18:25;;;;;;;23.85;12.77;;;;;;;15.76;100.00;100470.16;5050496;28;20048;-46
2023/08/18 07:20:52;;;;;;;27.40;8.85;;;;;;;15.75;100.00;100464.97;5049243;28;20731;-46
2023/08/18 07:23:19;;;;;;;17.65;7.28;;;;;;;15.76;100.00;100461.78;5049253;28;20041;-47
2023/08/18 07:25:46;;;;;;;20.17;5.82;;;;;;;15.75;100.00;100451.00;5050110;28;20095;-46
2023/08/18 07:28:13;;;;;;;23.35;6.40;;;;;;;15.74;100.00;100455.78;5049287;28;20041;-50
2023/08/18 07:30:40;;;;;;;20.23;7.30;;;;;;;15.76;100.00;100455.38;5045497;28;20048;-48
2023/08/18 07:33:07;;;;;;;23.92;7.93;;;;;;;15.77;100.00;100445.84;5044784;28;20151;-46
2023/08/18 07:35:34;;;;;;;22.48;10.05;;;;;;;15.79;100.00;100449.03;5049208;28;20072;-46
2023/08/18 07:38:01;;;;;;;19.38;6.00;;;;;;;15.80;100.00;100439.47;5047437;28;20049;-51
2023/08/18 07:40:28;;;;;;;18.92;6.28;;;;;;;15.79;100.00;100452.63;5044988;28;20037;-46
2023/08/18 07:42:55;;;;;;;23.27;6.10;;;;;;;15.80;100.00;100447.84;5048201;28;20472;-46
2023/08/18 07:45:22;;;;;;;23.23;5.88;;;;;;;15.81;100.00;100449.44;5030205;28;20586;-45
2023/08/18 07:47:49;;;;;;;23.55;8.50;;;;;;;15.83;100.00;100449.88;5049076;28;20071;-47
2023/08/18 07:50:16;;;;;;;19.65;6.43;;;;;;;15.83;100.00;100449.88;5048104;28;20095;-48
2023/08/18 07:52:43;;;;;;;22.67;8.13;;;;;;;15.83;100.00;100444.28;5047553;28;20052;-47
2023/08/18 07:55:10;;;;;;;22.05;6.70;;;;;;;15.82;100.00;100448.25;5047821;28;20465;-48
2023/08/18 07:57:37;;;;;;;25.40;7.45;;;;;;;15.81;100.00;100443.84;5047673;28;20368;-46
2023/08/18 08:00:08;;;;;;;18.10;7.05;;;;;;;15.81;100.00;100444.66;5047706;28;20056;-46
2023/08/18 08:02:35;;;;;;;23.88;6.50;;;;;;;15.84;100.00;100449.47;5028934;28;20127;-46
2023/08/18 08:05:05;;;;;;;20.67;8.10;;;;;;;15.86;100.00;100440.69;5050409;28;20055;-46
2023/08/18 08:07:33;;;;;;;16.00;7.30;;;;;;;15.86;100.00;100445.50;5049352;28;20041;-47
2023/08/18 08:10:04;;;;;;;18.80;6.65;;;;;;;15.84;100.00;100448.66;5032608;28;20056;-46
2023/08/18 08:12:31;;;;;;;17.23;6.43;;;;;;;15.85;100.00;100444.69;5026322;28;20129;-47
2023/08/18 08:14:58;;;;;;;29.35;10.18;;;;;;;15.87;100.00;100452.69;5046271;28;20047;-46
2023/08/18 08:17:25;;;;;;;23.52;8.70;;;;;;;15.88;100.00;100460.69;5049511;28;20036;-46
2023/08/18 08:19:52;;;;;;;18.15;7.97;;;;;;;15.90;100.00;100466.66;5050769;28;20047;-46
2023/08/18 08:22:19;;;;;;;20.30;7.90;;;;;;;15.91;100.00;100465.50;5048778;28;20072;-46
2023/08/18 08:24:48;;;;;;;19.30;7.05;;;;;;;15.90;100.00;100463.88;5050866;28;20056;-47
2023/08/18 08:27:19;;;;;;;17.27;7.03;;;;;;;15.89;100.00;100461.47;5052285;28;20509;-46
2023/08/18 08:29:45;;;;;;;32.60;8.82;;;;;;;15.88;100.00;100460.69;5053144;28;20040;-46
2023/08/18 08:32:12;;;;;;;25.23;9.90;;;;;;;15.90;100.00;100449.91;5043363;28;20046;-48
2023/08/18 08:34:49;;;;;;;23.08;7.90;;;;;;;15.93;100.00;100443.56;5051808;28;20029;-46
2023/08/18 08:37:19;;;;;;;14.63;7.43;;;;;;;15.94;100.00;100442.34;5050548;28;20055;-46
2023/08/18 08:39:46;;;;;;;18.08;7.82;;;;;;;15.96;100.00;100434.41;5050263;28;20657;-46
2023/08/18 08:42:13;;;;;;;22.23;7.00;;;;;;;16.00;100.00;100429.63;5049659;28;20040;-46
2023/08/18 08:44:40;;;;;;;17.88;7.00;;;;;;;16.04;100.00;100436.06;5047790;28;20053;-48
2023/08/18 08:47:07;;;;;;;13.30;7.47;;;;;;;16.09;100.00;100432.91;5052185;28;20064;-46
2023/08/18 08:49:35;;;;;;;12.85;7.57;;;;;;;16.11;100.00;100427.72;5052614;28;20140;-48
2023/08/18 08:52:06;;;;;;;14.80;6.57;;;;;;;16.13;100.00;100422.53;5051187;28;20045;-46
2023/08/18 08:54:39;;;;;;;14.32;7.07;;;;;;;16.16;100.00;100434.91;5055691;28;20048;-47
2023/08/18 08:57:08;;;;;;;;;;;;;;;16.14;100.00;100435.31;5052910;28;20052;-46
2023/08/18 08:59:36;;;;;;;15.27;7.15;;;;;;;16.14;100.00;100446.50;5050412;28;19920;-47
2023/08/18 09:02:03;;;;;;;20.23;8.55;;;;;;;16.13;100.00;100458.84;5052255;28;20140;-46
2023/08/18 09:04:31;;;;;;;14.23;7.22;;;;;;;16.12;100.00;100453.66;5052749;28;20048;-47
2023/08/18 09:06:57;;;;;;;12.27;7.45;;;;;;;16.09;100.00;100460.03;5052316;28;20049;-48
2023/08/18 09:09:24;;;;;;;11.90;8.27;;;;;;;16.10;100.00;100456.00;5050872;28;20041;-46
2023/08/18 09:11:59;;;;;;;16.10;7.38;;;;;;;16.09;100.00;100437.69;5056357;28;20064;-48
2023/08/18 09:14:27;;;;;;;14.50;6.88;;;;;;;16.08;100.00;100425.69;5046882;28;20060;-48
2023/08/18 09:16:54;;;;;;;14.15;7.38;;;;;;;16.08;100.00;100422.91;5053201;28;20060;-47
2023/08/18 09:19:22;;;;;;;15.50;9.32;;;;;;;16.08;100.00;100442.47;5050282;28;20507;-47
2023/08/18 09:21:50;;;;;;;15.07;7.95;;;;;;;16.08;100.00;100448.03;5047529;28;20063;-49
2023/08/18 09:24:24;;;;;;;19.75;10.60;;;;;;;16.12;100.00;100445.28;5052176;28;20049;-49
2023/08/18 09:26:52;;;;;;;17.00;8.15;;;;;;;16.15;100.00;100442.50;5053477;28;20045;-48
2023/08/18 09:29:20;;;;;;;16.45;8.90;;;;;;;16.13;100.00;100430.91;5053488;28;20445;-47
2023/08/18 09:31:49;;;;;;;20.02;8.15;;;;;;;16.09;100.00;100432.09;5052293;28;20554;-47
2023/08/18 09:34:20;;;;;;;16.35;9.15;;;;;;;16.09;100.00;100418.94;5035015;28;20048;-48
2023/08/18 09:36:54;;;;;;;20.50;9.32;;;;;;;16.13;100.00;100421.72;5052991;28;20494;-47
2023/08/18 09:39:21;;;;;;;18.05;8.77;;;;;;;16.16;100.00;100421.75;5052190;28;20422;-48
2023/08/18 09:41:53;;;;;;;16.92;9.20;;;;;;;16.16;100.00;100409.78;5052908;28;20048;-46
2023/08/18 09:44:23;;;;;;;20.83;10.68;;;;;;;16.15;100.00;100420.16;5052453;28;20044;-46
2023/08/18 09:46:58;;;;;;;21.80;9.68;;;;;;;16.14;100.00;100407.38;5045112;28;20133;-49
2023/08/18 09:49:26;;;;;;;22.88;10.77;;;;;;;16.15;100.00;100403.38;5052926;28;20048;-46
2023/08/18 09:52:01;;;;;;;23.63;11.50;;;;;;;16.17;100.00;100392.66;5052651;28;20045;-48
2023/08/18 09:54:30;;;;;;;27.27;10.98;;;;;;;16.18;100.00;100390.63;5040745;28;20557;-46
2023/08/18 09:57:01;;;;;;;25.58;11.82;;;;;;;16.20;100.00;100389.03;5052682;28;20048;-48
2023/08/18 09:59:34;;;;;;;24.73;10.90;;;;;;;16.22;100.00;100389.47;5052816;28;20076;-48
2023/08/18 10:02:03;;;;;;;25.40;11.90;;;;;;;16.20;100.00;100386.25;5053140;28;20080;-46
2023/08/18 10:04:39;;;;;;;24.42;12.27;;;;;;;16.21;100.00;100385.06;5052608;28;20038;-46
2023/08/18 10:07:07;;;;;;;35.22;11.40;;;;;;;16.23;100.00;100382.69;5035179;28;20045;-47
2023/08/18 10:09:35;;;;;;;23.88;9.35;;;;;;;16.27;100.00;100382.72;5052517;28;20045;-48
2023/08/18 10:12:02;;;;;;;29.45;11.38;;;;;;;16.30;100.00;100373.53;5051371;28;20053;-48
2023/08/18 10:14:31;;;;;;;28.95;10.38;;;;;;;16.29;100.00;100367.16;5052208;28;20143;-47
2023/08/18 10:17:00;;;;;;;21.52;9.50;;;;;;;16.28;100.00;100362.75;5039407;28;20057;-48
2023/08/18 10:19:50;;;;;;;25.38;9.90;;;;;;;16.32;100.00;100368.34;5052744;28;20088;-47
2023/08/18 10:22:19;;;;;;;18.38;10.02;;;;;;;16.33;100.00;100354.00;5052303;28;20416;-48
2023/08/18 10:24:47;;;;;;;19.75;9.25;;;;;;;16.35;100.00;100346.03;5035525;28;20080;-48
2023/08/18 10:27:26;;;;;;;21.17;10.25;;;;;;;16.40;100.00;100345.66;5034604;28;20056;-46
2023/08/18 10:30:00;;;;;;;27.63;10.05;;;;;;;16.42;100.00;100334.88;5034445;28;20038;-47
2023/08/18 10:32:27;;;;;;;22.42;9.05;;;;;;;16.47;100.00;100336.47;5046788;28;20041;-47
2023/08/18 10:35:22;;;;;;;15.98;9.10;;;;;;;16.52;100.00;100333.28;5052044;28;20049;-46
2023/08/18 10:38:10;;;;;;;26.08;8.68;;;;;;;16.56;100.00;100328.56;5050304;28;20043;-47
2023/08/18 10:40:38;;;;;;;17.75;8.90;;;;;;;16.57;100.00;100326.56;5052014;28;20098;-47
2023/08/18 10:43:12;;;;;;;22.38;9.48;;;;;;;16.62;100.00;100328.97;5050502;28;20116;-49
2023/08/18 10:45:42;;;;;;;20.17;8.18;;;;;;;16.68;100.00;100325.38;5051657;28;20395;-47
2023/08/18 10:48:09;;;;;;;17.67;8.98;;;;;;;16.75;100.00;100319.81;5051820;28;20041;-48
2023/08/18 10:50:45;;;;;;;20.45;8.35;;;;;;;16.82;100.00;100319.00;5022260;28;20168;-48
2023/08/18 10:53:13;;;;;;;25.75;9.90;;;;;;;16.88;100.00;100314.63;5010026;28;20048;-49
2023/08/18 10:55:42;;;;;;;17.77;8.50;;;;;;;16.91;100.00;100311.03;5009183;28;20118;-50
2023/08/18 10:58:12;;;;;;;20.65;7.60;;;;;;;16.92;100.00;100307.03;5010117;28;20058;-48
2023/08/18 11:00:39;;;;;;;23.52;8.43;;;;;;;16.87;100.00;100301.84;5009819;28;20055;-47
2023/08/18 11:03:10;;;;;;;14.05;7.63;;;;;;;16.84;100.00;100295.03;5008581;28;20109;-47
2023/08/18 11:05:37;;;;;;;17.35;7.00;;;;;;;16.82;100.00;100291.84;5014129;28;20060;-50
2023/08/18 11:08:04;;;;;;;15.57;7.68;;;;;;;16.77;100.00;100283.88;5010508;28;21297;-50
2023/08/18 11:10:31;;;;;;;14.23;8.00;;;;;;;16.74;100.00;100295.03;5008363;28;20110;-50
2023/08/18 11:12:58;;;;;;;17.73;7.95;;;;;;;16.70;100.00;100295.06;5015817;28;20430;-46
2023/08/18 11:15:26;;;;;;;13.35;7.70;;;;;;;16.68;100.00;100277.06;5050761;28;20510;-47
2023/08/18 11:17:54;;;;;;;11.82;7.75;;;;;;;16.68;100.00;100285.47;5042648;28;20061;-46
2023/08/18 11:20:21;;;;;;;15.07;7.53;;;;;;;16.67;100.00;100279.06;5010263;28;20041;-47
2023/08/18 11:22:53;;;;;;;19.42;7.68;;;;;;;16.68;100.00;100268.69;5009086;28;20521;-49